sensor_id;sensor_type;location;lat;lon;timestamp;temperature;humidity
12268;DHT22;6196;48.398;11.736;2023-06-22T00:01:21;20.00;99.90
12268;DHT22;6196;48.398;11.736;2023-06-22T00:03:51;20.00;99.90
12268;DHT22;6196;48.398;11.736;2023-06-22T00:06:18;20.00;99.90
12268;DHT22;6196;48.398;11.736;2023-06-22T00:08:46;20.00;99.90
12268;DHT22;6196;48.398;11.736;2023-06-22T00:11:13;20.00;99.90
12268;DHT22;6196;48.398;11.736;2023-06-22T00:13:40;20.00;99.90
12268;DHT22;6196;48.398;11.736;2023-06-22T00:16:07;19.90;99.90
12268;DHT22;6196;48.398;11.736;2023-06-22T00:18:34;20.00;99.90
12268;DHT22;6196;48.398;11.736;2023-06-22T00:21:01;20.00;99.90
12268;DHT22;6196;48.398;11.736;2023-06-22T00:23:28;19.90;99.90
12268;DHT22;6196;48.398;11.736;2023-06-22T00:25:55;19.90;99.90
12268;DHT22;6196;48.398;11.736;2023-06-22T00:28:22;19.90;99.90
12268;DHT22;6196;48.398;11.736;2023-06-22T00:30:49;19.90;99.90
12268;DHT22;6196;48.398;11.736;2023-06-22T00:33:16;19.90;99.90
12268;DHT22;6196;48.398;11.736;2023-06-22T00:35:43;19.90;99.90
12268;DHT22;6196;48.398;11.736;2023-06-22T00:38:11;19.90;99.90
12268;DHT22;6196;48.398;11.736;2023-06-22T00:40:38;19.90;99.90
12268;DHT22;6196;48.398;11.736;2023-06-22T00:43:05;19.90;99.90
12268;DHT22;6196;48.398;11.736;2023-06-22T00:45:33;19.90;99.90
12268;DHT22;6196;48.398;11.736;2023-06-22T00:48:00;19.90;99.90
12268;DHT22;6196;48.398;11.736;2023-06-22T00:50:29;19.90;99.90
12268;DHT22;6196;48.398;11.736;2023-06-22T00:53:05;19.90;99.90
12268;DHT22;6196;48.398;11.736;2023-06-22T00:55:38;19.90;99.90
12268;DHT22;6196;48.398;11.736;2023-06-22T00:58:06;19.90;99.90
12268;DHT22;6196;48.398;11.736;2023-06-22T01:00:37;19.90;99.90
12268;DHT22;6196;48.398;11.736;2023-06-22T01:03:05;19.90;99.90
12268;DHT22;6196;48.398;11.736;2023-06-22T01:05:36;19.90;99.90
12268;DHT22;6196;48.398;11.736;2023-06-22T01:08:38;20.00;99.90
12268;DHT22;6196;48.398;11.736;2023-06-22T01:11:41;20.00;99.90
12268;DHT22;6196;48.398;11.736;2023-06-22T01:14:21;20.00;99.90
12268;DHT22;6196;48.398;11.736;2023-06-22T01:16:54;20.00;99.90
12268;DHT22;6196;48.398;11.736;2023-06-22T01:19:39;19.90;99.90
12268;DHT22;6196;48.398;11.736;2023-06-22T01:22:16;19.80;99.90
12268;DHT22;6196;48.398;11.736;2023-06-22T01:29:57;19.70;99.90
12268;DHT22;6196;48.398;11.736;2023-06-22T01:32:31;19.70;99.90
12268;DHT22;6196;48.398;11.736;2023-06-22T01:35:04;19.70;99.90
12268;DHT22;6196;48.398;11.736;2023-06-22T01:37:34;19.70;99.90
12268;DHT22;6196;48.398;11.736;2023-06-22T01:40:03;19.60;99.90
12268;DHT22;6196;48.398;11.736;2023-06-22T01:42:32;19.60;99.90
12268;DHT22;6196;48.398;11.736;2023-06-22T01:45:00;19.50;99.90
12268;DHT22;6196;48.398;11.736;2023-06-22T01:47:27;19.40;99.90
12268;DHT22;6196;48.398;11.736;2023-06-22T01:49:54;19.40;99.90
12268;DHT22;6196;48.398;11.736;2023-06-22T01:52:21;19.40;99.90
12268;DHT22;6196;48.398;11.736;2023-06-22T01:54:48;19.40;99.90
12268;DHT22;6196;48.398;11.736;2023-06-22T01:57:15;19.40;99.90
12268;DHT22;6196;48.398;11.736;2023-06-22T02:00:03;19.30;99.90
12268;DHT22;6196;48.398;11.736;2023-06-22T02:05:16;19.20;99.90
12268;DHT22;6196;48.398;11.736;2023-06-22T02:07:55;19.20;99.90
12268;DHT22;6196;48.398;11.736;2023-06-22T02:10:27;19.20;99.90
12268;DHT22;6196;48.398;11.736;2023-06-22T02:12:57;19.20;99.90
12268;DHT22;6196;48.398;11.736;2023-06-22T02:15:25;19.20;99.90
12268;DHT22;6196;48.398;11.736;2023-06-22T02:17:52;19.10;99.90
12268;DHT22;6196;48.398;11.736;2023-06-22T02:20:19;19.20;99.90
12268;DHT22;6196;48.398;11.736;2023-06-22T02:22:46;19.20;99.90
12268;DHT22;6196;48.398;11.736;2023-06-22T02:25:14;19.20;99.90
12268;DHT22;6196;48.398;11.736;2023-06-22T02:27:41;19.20;99.90
12268;DHT22;6196;48.398;11.736;2023-06-22T02:30:08;19.20;99.90
12268;DHT22;6196;48.398;11.736;2023-06-22T02:32:36;19.20;99.90
12268;DHT22;6196;48.398;11.736;2023-06-22T02:35:03;19.20;99.90
12268;DHT22;6196;48.398;11.736;2023-06-22T02:37:31;19.10;99.90
12268;DHT22;6196;48.398;11.736;2023-06-22T02:39:59;19.10;99.90
12268;DHT22;6196;48.398;11.736;2023-06-22T02:42:25;19.20;99.90
12268;DHT22;6196;48.398;11.736;2023-06-22T02:44:52;19.10;99.90
12268;DHT22;6196;48.398;11.736;2023-06-22T02:47:19;19.10;99.90
12268;DHT22;6196;48.398;11.736;2023-06-22T02:49:46;19.10;99.90
12268;DHT22;6196;48.398;11.736;2023-06-22T02:52:13;19.00;99.90
12268;DHT22;6196;48.398;11.736;2023-06-22T02:54:40;19.00;99.90
12268;DHT22;6196;48.398;11.736;2023-06-22T02:57:07;19.00;99.90
12268;DHT22;6196;48.398;11.736;2023-06-22T02:59:40;19.00;99.90
12268;DHT22;6196;48.398;11.736;2023-06-22T03:02:08;19.00;99.90
12268;DHT22;6196;48.398;11.736;2023-06-22T03:04:36;18.90;99.90
12268;DHT22;6196;48.398;11.736;2023-06-22T03:07:03;18.90;99.90
12268;DHT22;6196;48.398;11.736;2023-06-22T03:09:31;18.90;99.90
12268;DHT22;6196;48.398;11.736;2023-06-22T03:11:58;18.90;99.90
12268;DHT22;6196;48.398;11.736;2023-06-22T03:14:25;18.90;99.90
12268;DHT22;6196;48.398;11.736;2023-06-22T03:16:53;18.90;99.90
12268;DHT22;6196;48.398;11.736;2023-06-22T03:19:19;18.90;99.90
12268;DHT22;6196;48.398;11.736;2023-06-22T03:21:48;18.90;99.90
12268;DHT22;6196;48.398;11.736;2023-06-22T03:24:15;18.90;99.90
12268;DHT22;6196;48.398;11.736;2023-06-22T03:26:42;18.90;99.90
12268;DHT22;6196;48.398;11.736;2023-06-22T03:29:09;18.90;99.90
12268;DHT22;6196;48.398;11.736;2023-06-22T03:31:36;18.90;99.90
12268;DHT22;6196;48.398;11.736;2023-06-22T03:34:03;18.90;99.90
12268;DHT22;6196;48.398;11.736;2023-06-22T03:36:30;18.90;99.90
12268;DHT22;6196;48.398;11.736;2023-06-22T03:38:57;19.00;99.90
12268;DHT22;6196;48.398;11.736;2023-06-22T03:41:23;18.90;99.90
12268;DHT22;6196;48.398;11.736;2023-06-22T03:43:52;18.90;99.90
12268;DHT22;6196;48.398;11.736;2023-06-22T03:46:19;19.00;99.90
12268;DHT22;6196;48.398;11.736;2023-06-22T03:48:46;19.00;99.90
12268;DHT22;6196;48.398;11.736;2023-06-22T03:51:13;19.10;99.90
12268;DHT22;6196;48.398;11.736;2023-06-22T03:53:40;19.00;99.90
12268;DHT22;6196;48.398;11.736;2023-06-22T03:56:07;19.10;99.90
12268;DHT22;6196;48.398;11.736;2023-06-22T03:58:34;19.10;99.90
12268;DHT22;6196;48.398;11.736;2023-06-22T04:01:03;19.20;99.90
12268;DHT22;6196;48.398;11.736;2023-06-22T04:03:29;19.20;99.90
12268;DHT22;6196;48.398;11.736;2023-06-22T04:05:56;19.20;99.90
12268;DHT22;6196;48.398;11.736;2023-06-22T04:08:23;19.30;99.90
12268;DHT22;6196;48.398;11.736;2023-06-22T04:10:50;19.30;99.90
12268;DHT22;6196;48.398;11.736;2023-06-22T04:13:17;19.40;99.90
12268;DHT22;6196;48.398;11.736;2023-06-22T04:15:44;19.40;99.90
12268;DHT22;6196;48.398;11.736;2023-06-22T04:18:11;19.50;99.90
12268;DHT22;6196;48.398;11.736;2023-06-22T04:20:39;19.50;99.90
12268;DHT22;6196;48.398;11.736;2023-06-22T04:23:06;19.60;99.90
12268;DHT22;6196;48.398;11.736;2023-06-22T04:25:33;19.60;99.90
12268;DHT22;6196;48.398;11.736;2023-06-22T04:28:00;19.70;99.90
12268;DHT22;6196;48.398;11.736;2023-06-22T04:30:29;19.70;99.90
12268;DHT22;6196;48.398;11.736;2023-06-22T04:32:58;19.80;99.90
12268;DHT22;6196;48.398;11.736;2023-06-22T04:35:25;19.90;99.90
12268;DHT22;6196;48.398;11.736;2023-06-22T04:37:53;20.00;99.90
12268;DHT22;6196;48.398;11.736;2023-06-22T04:40:25;20.00;99.90
12268;DHT22;6196;48.398;11.736;2023-06-22T04:42:53;20.00;99.90
12268;DHT22;6196;48.398;11.736;2023-06-22T04:45:20;20.10;99.90
12268;DHT22;6196;48.398;11.736;2023-06-22T04:47:48;20.20;99.90
12268;DHT22;6196;48.398;11.736;2023-06-22T04:50:15;20.30;99.90
12268;DHT22;6196;48.398;11.736;2023-06-22T04:52:43;20.30;99.90
12268;DHT22;6196;48.398;11.736;2023-06-22T04:55:12;20.40;99.90
12268;DHT22;6196;48.398;11.736;2023-06-22T04:57:41;20.50;99.90
12268;DHT22;6196;48.398;11.736;2023-06-22T05:00:11;20.50;99.90
12268;DHT22;6196;48.398;11.736;2023-06-22T05:02:40;20.70;99.90
12268;DHT22;6196;48.398;11.736;2023-06-22T05:05:08;20.70;99.90
12268;DHT22;6196;48.398;11.736;2023-06-22T05:07:36;20.80;99.90
12268;DHT22;6196;48.398;11.736;2023-06-22T05:10:03;20.90;99.90
12268;DHT22;6196;48.398;11.736;2023-06-22T05:12:31;20.80;99.90
12268;DHT22;6196;48.398;11.736;2023-06-22T05:14:58;21.00;99.90
12268;DHT22;6196;48.398;11.736;2023-06-22T05:17:25;21.00;99.90
12268;DHT22;6196;48.398;11.736;2023-06-22T05:19:52;21.10;99.90
12268;DHT22;6196;48.398;11.736;2023-06-22T05:22:19;21.20;99.90
12268;DHT22;6196;48.398;11.736;2023-06-22T05:24:47;21.40;99.90
12268;DHT22;6196;48.398;11.736;2023-06-22T05:27:14;21.60;99.90
12268;DHT22;6196;48.398;11.736;2023-06-22T05:29:41;21.80;99.90
12268;DHT22;6196;48.398;11.736;2023-06-22T05:32:26;21.90;99.90
12268;DHT22;6196;48.398;11.736;2023-06-22T05:34:53;22.00;99.90
12268;DHT22;6196;48.398;11.736;2023-06-22T05:37:20;22.00;99.90
12268;DHT22;6196;48.398;11.736;2023-06-22T05:39:48;22.00;99.90
12268;DHT22;6196;48.398;11.736;2023-06-22T05:42:14;22.20;99.90
12268;DHT22;6196;48.398;11.736;2023-06-22T05:44:41;22.50;99.90
12268;DHT22;6196;48.398;11.736;2023-06-22T05:47:08;22.60;99.90
12268;DHT22;6196;48.398;11.736;2023-06-22T05:49:35;22.60;99.90
12268;DHT22;6196;48.398;11.736;2023-06-22T05:52:02;22.60;99.90
12268;DHT22;6196;48.398;11.736;2023-06-22T05:54:30;22.60;99.90
12268;DHT22;6196;48.398;11.736;2023-06-22T05:56:57;22.70;99.90
12268;DHT22;6196;48.398;11.736;2023-06-22T05:59:24;22.90;99.90
12268;DHT22;6196;48.398;11.736;2023-06-22T06:01:51;23.10;99.90
12268;DHT22;6196;48.398;11.736;2023-06-22T06:04:18;23.30;99.90
12268;DHT22;6196;48.398;11.736;2023-06-22T06:06:46;23.40;99.90
12268;DHT22;6196;48.398;11.736;2023-06-22T06:09:15;23.60;99.90
12268;DHT22;6196;48.398;11.736;2023-06-22T06:11:42;23.70;99.90
12268;DHT22;6196;48.398;11.736;2023-06-22T06:14:09;23.80;99.90
12268;DHT22;6196;48.398;11.736;2023-06-22T06:16:36;24.00;99.90
12268;DHT22;6196;48.398;11.736;2023-06-22T06:19:03;24.20;99.90
12268;DHT22;6196;48.398;11.736;2023-06-22T06:21:30;24.50;99.90
12268;DHT22;6196;48.398;11.736;2023-06-22T06:23:57;24.70;99.90
12268;DHT22;6196;48.398;11.736;2023-06-22T06:26:25;24.80;99.90
12268;DHT22;6196;48.398;11.736;2023-06-22T06:28:56;25.00;99.90
12268;DHT22;6196;48.398;11.736;2023-06-22T06:31:24;24.90;99.90
12268;DHT22;6196;48.398;11.736;2023-06-22T06:33:51;25.20;99.90
12268;DHT22;6196;48.398;11.736;2023-06-22T06:36:18;25.30;99.90
12268;DHT22;6196;48.398;11.736;2023-06-22T06:38:45;25.40;99.90
12268;DHT22;6196;48.398;11.736;2023-06-22T06:41:15;25.50;99.90
12268;DHT22;6196;48.398;11.736;2023-06-22T06:43:42;25.60;99.90
12268;DHT22;6196;48.398;11.736;2023-06-22T06:46:10;25.70;99.90
12268;DHT22;6196;48.398;11.736;2023-06-22T06:48:37;25.80;99.90
12268;DHT22;6196;48.398;11.736;2023-06-22T06:51:04;25.70;99.90
12268;DHT22;6196;48.398;11.736;2023-06-22T06:53:30;25.50;99.90
12268;DHT22;6196;48.398;11.736;2023-06-22T06:55:57;25.60;99.90
12268;DHT22;6196;48.398;11.736;2023-06-22T06:58:24;25.70;99.90
12268;DHT22;6196;48.398;11.736;2023-06-22T07:00:51;25.90;99.90
12268;DHT22;6196;48.398;11.736;2023-06-22T07:03:18;25.60;99.90
12268;DHT22;6196;48.398;11.736;2023-06-22T07:05:45;25.70;99.90
12268;DHT22;6196;48.398;11.736;2023-06-22T07:08:12;26.10;99.90
12268;DHT22;6196;48.398;11.736;2023-06-22T07:10:39;26.20;99.90
12268;DHT22;6196;48.398;11.736;2023-06-22T07:13:06;26.40;99.90
12268;DHT22;6196;48.398;11.736;2023-06-22T07:15:33;26.50;99.90
12268;DHT22;6196;48.398;11.736;2023-06-22T07:18:00;26.90;99.90
12268;DHT22;6196;48.398;11.736;2023-06-22T07:20:27;27.10;99.90
12268;DHT22;6196;48.398;11.736;2023-06-22T07:22:54;27.20;99.90
12268;DHT22;6196;48.398;11.736;2023-06-22T07:25:21;27.20;99.90
12268;DHT22;6196;48.398;11.736;2023-06-22T07:28:02;27.30;99.90
12268;DHT22;6196;48.398;11.736;2023-06-22T07:30:32;27.30;99.90
12268;DHT22;6196;48.398;11.736;2023-06-22T07:33:00;27.10;99.90
12268;DHT22;6196;48.398;11.736;2023-06-22T07:35:31;27.10;99.90
12268;DHT22;6196;48.398;11.736;2023-06-22T07:37:58;27.30;99.90
12268;DHT22;6196;48.398;11.736;2023-06-22T07:40:27;27.30;99.90
12268;DHT22;6196;48.398;11.736;2023-06-22T07:42:54;27.60;99.90
12268;DHT22;6196;48.398;11.736;2023-06-22T07:45:21;27.90;99.90
12268;DHT22;6196;48.398;11.736;2023-06-22T07:47:48;28.00;99.90
12268;DHT22;6196;48.398;11.736;2023-06-22T07:50:15;27.70;99.90
12268;DHT22;6196;48.398;11.736;2023-06-22T07:52:42;27.80;99.90
12268;DHT22;6196;48.398;11.736;2023-06-22T07:55:09;27.80;99.90
12268;DHT22;6196;48.398;11.736;2023-06-22T07:57:36;28.00;99.90
12268;DHT22;6196;48.398;11.736;2023-06-22T08:00:04;28.00;99.90
12268;DHT22;6196;48.398;11.736;2023-06-22T08:02:44;28.10;99.90
12268;DHT22;6196;48.398;11.736;2023-06-22T08:05:14;28.00;99.90
12268;DHT22;6196;48.398;11.736;2023-06-22T08:07:49;28.00;99.90
12268;DHT22;6196;48.398;11.736;2023-06-22T08:10:17;28.30;99.90
12268;DHT22;6196;48.398;11.736;2023-06-22T08:12:44;28.70;99.90
12268;DHT22;6196;48.398;11.736;2023-06-22T08:15:10;28.80;99.90
12268;DHT22;6196;48.398;11.736;2023-06-22T08:17:38;29.10;99.90
12268;DHT22;6196;48.398;11.736;2023-06-22T08:20:07;29.30;99.90
12268;DHT22;6196;48.398;11.736;2023-06-22T08:22:41;29.30;99.90
12268;DHT22;6196;48.398;11.736;2023-06-22T08:25:09;29.50;99.90
12268;DHT22;6196;48.398;11.736;2023-06-22T08:27:36;29.50;99.90
12268;DHT22;6196;48.398;11.736;2023-06-22T08:30:03;29.50;99.90
12268;DHT22;6196;48.398;11.736;2023-06-22T08:32:31;29.80;99.90
12268;DHT22;6196;48.398;11.736;2023-06-22T08:35:00;29.60;99.90
12268;DHT22;6196;48.398;11.736;2023-06-22T08:37:27;29.70;99.90
12268;DHT22;6196;48.398;11.736;2023-06-22T08:39:59;29.90;99.90
12268;DHT22;6196;48.398;11.736;2023-06-22T08:42:27;29.60;99.90
12268;DHT22;6196;48.398;11.736;2023-06-22T08:44:55;29.80;99.90
12268;DHT22;6196;48.398;11.736;2023-06-22T08:47:22;30.00;99.90
12268;DHT22;6196;48.398;11.736;2023-06-22T08:49:50;29.90;99.90
12268;DHT22;6196;48.398;11.736;2023-06-22T08:52:18;30.00;99.90
12268;DHT22;6196;48.398;11.736;2023-06-22T08:54:47;30.60;99.90
12268;DHT22;6196;48.398;11.736;2023-06-22T08:57:14;30.90;99.90
12268;DHT22;6196;48.398;11.736;2023-06-22T08:59:43;30.70;99.90
12268;DHT22;6196;48.398;11.736;2023-06-22T09:02:09;30.60;99.90
12268;DHT22;6196;48.398;11.736;2023-06-22T09:04:37;30.60;99.90
12268;DHT22;6196;48.398;11.736;2023-06-22T09:07:04;30.60;99.90
12268;DHT22;6196;48.398;11.736;2023-06-22T09:09:31;30.60;99.90
12268;DHT22;6196;48.398;11.736;2023-06-22T09:11:58;30.80;99.90
12268;DHT22;6196;48.398;11.736;2023-06-22T09:14:25;30.60;99.90
12268;DHT22;6196;48.398;11.736;2023-06-22T09:16:52;30.70;99.90
12268;DHT22;6196;48.398;11.736;2023-06-22T09:19:19;30.60;99.90
12268;DHT22;6196;48.398;11.736;2023-06-22T09:21:46;30.50;99.90
12268;DHT22;6196;48.398;11.736;2023-06-22T09:24:13;30.30;99.90
12268;DHT22;6196;48.398;11.736;2023-06-22T09:26:40;30.50;99.90
12268;DHT22;6196;48.398;11.736;2023-06-22T09:29:07;30.80;99.90
12268;DHT22;6196;48.398;11.736;2023-06-22T09:31:34;30.90;99.90
12268;DHT22;6196;48.398;11.736;2023-06-22T09:34:01;31.00;99.90
12268;DHT22;6196;48.398;11.736;2023-06-22T09:36:28;30.90;99.90
12268;DHT22;6196;48.398;11.736;2023-06-22T09:38:55;31.20;99.90
12268;DHT22;6196;48.398;11.736;2023-06-22T09:41:22;31.20;99.90
12268;DHT22;6196;48.398;11.736;2023-06-22T09:43:50;31.30;99.90
12268;DHT22;6196;48.398;11.736;2023-06-22T09:46:20;31.30;99.90
12268;DHT22;6196;48.398;11.736;2023-06-22T09:48:49;31.30;99.90
12268;DHT22;6196;48.398;11.736;2023-06-22T09:51:15;31.40;99.90
12268;DHT22;6196;48.398;11.736;2023-06-22T09:53:43;31.50;99.90
12268;DHT22;6196;48.398;11.736;2023-06-22T09:56:10;31.70;99.90
12268;DHT22;6196;48.398;11.736;2023-06-22T09:58:45;31.60;99.90
12268;DHT22;6196;48.398;11.736;2023-06-22T10:01:13;31.90;99.90
12268;DHT22;6196;48.398;11.736;2023-06-22T10:03:43;32.30;99.90
12268;DHT22;6196;48.398;11.736;2023-06-22T10:06:10;32.20;99.90
12268;DHT22;6196;48.398;11.736;2023-06-22T10:08:37;32.10;99.90
12268;DHT22;6196;48.398;11.736;2023-06-22T10:11:05;32.10;99.90
12268;DHT22;6196;48.398;11.736;2023-06-22T10:13:32;31.90;99.90
12268;DHT22;6196;48.398;11.736;2023-06-22T10:15:59;31.90;99.90
12268;DHT22;6196;48.398;11.736;2023-06-22T10:18:26;32.10;99.90
12268;DHT22;6196;48.398;11.736;2023-06-22T10:20:53;32.00;99.90
12268;DHT22;6196;48.398;11.736;2023-06-22T10:23:20;32.10;99.90
12268;DHT22;6196;48.398;11.736;2023-06-22T10:25:48;32.50;99.90
12268;DHT22;6196;48.398;11.736;2023-06-22T10:28:15;32.20;99.90
12268;DHT22;6196;48.398;11.736;2023-06-22T10:30:43;32.30;99.90
12268;DHT22;6196;48.398;11.736;2023-06-22T10:33:11;32.40;99.90
12268;DHT22;6196;48.398;11.736;2023-06-22T10:35:38;32.20;99.90
12268;DHT22;6196;48.398;11.736;2023-06-22T10:38:06;32.20;99.90
12268;DHT22;6196;48.398;11.736;2023-06-22T10:40:33;32.40;99.90
12268;DHT22;6196;48.398;11.736;2023-06-22T10:43:00;32.60;99.90
12268;DHT22;6196;48.398;11.736;2023-06-22T10:45:27;32.60;99.90
12268;DHT22;6196;48.398;11.736;2023-06-22T10:47:55;33.00;99.90
12268;DHT22;6196;48.398;11.736;2023-06-22T10:50:22;33.30;99.90
12268;DHT22;6196;48.398;11.736;2023-06-22T10:52:51;33.30;99.50
12268;DHT22;6196;48.398;11.736;2023-06-22T10:55:18;33.60;99.20
12268;DHT22;6196;48.398;11.736;2023-06-22T10:57:45;34.00;99.90
12268;DHT22;6196;48.398;11.736;2023-06-22T11:00:14;34.30;98.30
12268;DHT22;6196;48.398;11.736;2023-06-22T11:02:42;34.10;98.10
12268;DHT22;6196;48.398;11.736;2023-06-22T11:05:10;34.10;97.80
12268;DHT22;6196;48.398;11.736;2023-06-22T11:07:38;34.10;97.40
12268;DHT22;6196;48.398;11.736;2023-06-22T11:10:12;33.90;97.50
12268;DHT22;6196;48.398;11.736;2023-06-22T11:12:39;34.30;97.90
12268;DHT22;6196;48.398;11.736;2023-06-22T11:15:07;34.70;96.80
12268;DHT22;6196;48.398;11.736;2023-06-22T11:17:35;34.80;96.50
12268;DHT22;6196;48.398;11.736;2023-06-22T11:20:02;35.20;96.50
12268;DHT22;6196;48.398;11.736;2023-06-22T11:22:40;35.50;96.10
12268;DHT22;6196;48.398;11.736;2023-06-22T11:25:08;35.40;95.90
12268;DHT22;6196;48.398;11.736;2023-06-22T11:27:35;35.50;95.70
12268;DHT22;6196;48.398;11.736;2023-06-22T11:30:02;35.30;95.50
12268;DHT22;6196;48.398;11.736;2023-06-22T11:32:30;35.30;95.40
12268;DHT22;6196;48.398;11.736;2023-06-22T11:34:57;35.20;94.40
12268;DHT22;6196;48.398;11.736;2023-06-22T11:37:24;34.80;94.90
12268;DHT22;6196;48.398;11.736;2023-06-22T11:39:51;34.60;93.90
12268;DHT22;6196;48.398;11.736;2023-06-22T11:42:25;34.30;94.70
12268;DHT22;6196;48.398;11.736;2023-06-22T11:44:51;34.00;95.00
12268;DHT22;6196;48.398;11.736;2023-06-22T11:47:18;34.00;95.60
12268;DHT22;6196;48.398;11.736;2023-06-22T11:49:45;34.30;95.20
12268;DHT22;6196;48.398;11.736;2023-06-22T11:52:13;34.50;94.40
12268;DHT22;6196;48.398;11.736;2023-06-22T11:54:39;34.70;94.20
12268;DHT22;6196;48.398;11.736;2023-06-22T11:57:06;34.90;94.20
12268;DHT22;6196;48.398;11.736;2023-06-22T11:59:33;35.00;95.00
12268;DHT22;6196;48.398;11.736;2023-06-22T12:02:00;35.40;94.20
12268;DHT22;6196;48.398;11.736;2023-06-22T12:04:27;35.50;94.90
12268;DHT22;6196;48.398;11.736;2023-06-22T12:06:54;35.70;94.30
12268;DHT22;6196;48.398;11.736;2023-06-22T12:09:21;35.80;93.30
12268;DHT22;6196;48.398;11.736;2023-06-22T12:11:48;35.80;93.90
12268;DHT22;6196;48.398;11.736;2023-06-22T12:14:15;35.70;94.00
12268;DHT22;6196;48.398;11.736;2023-06-22T12:16:42;35.90;94.20
12268;DHT22;6196;48.398;11.736;2023-06-22T12:19:11;36.20;93.70
12268;DHT22;6196;48.398;11.736;2023-06-22T12:21:38;36.50;93.10
12268;DHT22;6196;48.398;11.736;2023-06-22T12:24:07;36.10;92.50
12268;DHT22;6196;48.398;11.736;2023-06-22T12:26:34;36.20;92.40
12268;DHT22;6196;48.398;11.736;2023-06-22T12:29:01;36.30;92.40
12268;DHT22;6196;48.398;11.736;2023-06-22T12:31:28;36.30;90.90
12268;DHT22;6196;48.398;11.736;2023-06-22T12:33:54;36.30;91.70
12268;DHT22;6196;48.398;11.736;2023-06-22T12:36:21;36.40;91.70
12268;DHT22;6196;48.398;11.736;2023-06-22T12:38:48;35.90;91.50
12268;DHT22;6196;48.398;11.736;2023-06-22T12:41:15;35.70;92.10
12268;DHT22;6196;48.398;11.736;2023-06-22T12:43:42;35.50;92.90
12268;DHT22;6196;48.398;11.736;2023-06-22T12:46:09;35.80;92.30
12268;DHT22;6196;48.398;11.736;2023-06-22T12:48:36;36.00;92.80
12268;DHT22;6196;48.398;11.736;2023-06-22T12:51:09;36.20;91.30
12268;DHT22;6196;48.398;11.736;2023-06-22T12:53:36;36.40;91.20
12268;DHT22;6196;48.398;11.736;2023-06-22T12:56:03;36.60;92.00
12268;DHT22;6196;48.398;11.736;2023-06-22T12:58:30;36.70;92.00
12268;DHT22;6196;48.398;11.736;2023-06-22T13:00:57;36.70;91.10
12268;DHT22;6196;48.398;11.736;2023-06-22T13:03:24;36.60;91.10
12268;DHT22;6196;48.398;11.736;2023-06-22T13:05:53;36.30;91.00
12268;DHT22;6196;48.398;11.736;2023-06-22T13:08:20;36.00;91.10
12268;DHT22;6196;48.398;11.736;2023-06-22T13:10:47;35.60;91.40
12268;DHT22;6196;48.398;11.736;2023-06-22T13:13:14;35.50;91.60
12268;DHT22;6196;48.398;11.736;2023-06-22T13:15:41;35.50;92.20
12268;DHT22;6196;48.398;11.736;2023-06-22T13:18:08;35.40;91.80
12268;DHT22;6196;48.398;11.736;2023-06-22T13:20:35;35.60;91.70
12268;DHT22;6196;48.398;11.736;2023-06-22T13:23:02;35.40;91.70
12268;DHT22;6196;48.398;11.736;2023-06-22T13:25:29;35.40;92.10
12268;DHT22;6196;48.398;11.736;2023-06-22T13:27:56;35.60;91.30
12268;DHT22;6196;48.398;11.736;2023-06-22T13:30:23;35.60;91.20
12268;DHT22;6196;48.398;11.736;2023-06-22T13:33:08;35.50;91.20
12268;DHT22;6196;48.398;11.736;2023-06-22T13:35:35;35.60;91.80
12268;DHT22;6196;48.398;11.736;2023-06-22T13:38:20;35.90;91.60
12268;DHT22;6196;48.398;11.736;2023-06-22T13:40:47;36.30;90.80
12268;DHT22;6196;48.398;11.736;2023-06-22T13:43:32;36.70;90.20
12268;DHT22;6196;48.398;11.736;2023-06-22T13:45:59;36.80;90.30
12268;DHT22;6196;48.398;11.736;2023-06-22T13:48:43;36.50;91.10
12268;DHT22;6196;48.398;11.736;2023-06-22T13:51:10;36.90;90.10
12268;DHT22;6196;48.398;11.736;2023-06-22T13:53:37;37.10;90.40
12268;DHT22;6196;48.398;11.736;2023-06-22T13:56:04;37.50;90.00
12268;DHT22;6196;48.398;11.736;2023-06-22T13:58:31;37.70;90.00
12268;DHT22;6196;48.398;11.736;2023-06-22T14:00:58;37.50;90.00
12268;DHT22;6196;48.398;11.736;2023-06-22T14:03:25;37.00;90.00
12268;DHT22;6196;48.398;11.736;2023-06-22T14:05:52;37.10;90.20
12268;DHT22;6196;48.398;11.736;2023-06-22T14:08:22;36.90;89.50
12268;DHT22;6196;48.398;11.736;2023-06-22T14:11:07;37.30;90.30
12268;DHT22;6196;48.398;11.736;2023-06-22T14:13:34;37.60;89.50
12268;DHT22;6196;48.398;11.736;2023-06-22T14:16:02;38.00;88.80
12268;DHT22;6196;48.398;11.736;2023-06-22T14:18:31;38.50;88.00
12268;DHT22;6196;48.398;11.736;2023-06-22T14:20:58;38.60;88.10
12268;DHT22;6196;48.398;11.736;2023-06-22T14:23:25;38.90;87.30
12268;DHT22;6196;48.398;11.736;2023-06-22T14:25:52;39.00;86.40
12268;DHT22;6196;48.398;11.736;2023-06-22T14:28:19;39.10;85.00
12268;DHT22;6196;48.398;11.736;2023-06-22T14:30:46;38.90;83.10
12268;DHT22;6196;48.398;11.736;2023-06-22T14:33:13;38.40;84.20
12268;DHT22;6196;48.398;11.736;2023-06-22T14:35:40;38.50;82.70
12268;DHT22;6196;48.398;11.736;2023-06-22T14:38:07;38.70;83.00
12268;DHT22;6196;48.398;11.736;2023-06-22T14:40:34;38.60;80.60
12268;DHT22;6196;48.398;11.736;2023-06-22T14:43:19;38.40;81.00
12268;DHT22;6196;48.398;11.736;2023-06-22T14:45:46;38.20;83.20
12268;DHT22;6196;48.398;11.736;2023-06-22T14:48:13;38.00;81.70
12268;DHT22;6196;48.398;11.736;2023-06-22T14:50:39;38.30;82.30
12268;DHT22;6196;48.398;11.736;2023-06-22T14:53:06;38.60;82.80
12268;DHT22;6196;48.398;11.736;2023-06-22T14:55:33;38.60;78.90
12268;DHT22;6196;48.398;11.736;2023-06-22T14:58:00;38.40;79.90
12268;DHT22;6196;48.398;11.736;2023-06-22T15:00:27;38.20;79.50
12268;DHT22;6196;48.398;11.736;2023-06-22T15:02:55;38.00;78.60
12268;DHT22;6196;48.398;11.736;2023-06-22T15:05:22;38.10;82.10
12268;DHT22;6196;48.398;11.736;2023-06-22T15:07:50;38.40;81.70
12268;DHT22;6196;48.398;11.736;2023-06-22T15:10:17;38.50;82.40
12268;DHT22;6196;48.398;11.736;2023-06-22T15:12:44;38.50;81.20
12268;DHT22;6196;48.398;11.736;2023-06-22T15:15:11;38.50;78.60
12268;DHT22;6196;48.398;11.736;2023-06-22T15:17:38;38.60;80.80
12268;DHT22;6196;48.398;11.736;2023-06-22T15:20:05;39.00;83.20
12268;DHT22;6196;48.398;11.736;2023-06-22T15:22:34;38.60;82.00
12268;DHT22;6196;48.398;11.736;2023-06-22T15:25:01;38.60;81.40
12268;DHT22;6196;48.398;11.736;2023-06-22T15:27:29;38.30;81.90
12268;DHT22;6196;48.398;11.736;2023-06-22T15:29:56;38.50;82.50
12268;DHT22;6196;48.398;11.736;2023-06-22T15:32:24;38.90;84.20
12268;DHT22;6196;48.398;11.736;2023-06-22T15:34:51;38.90;81.80
12268;DHT22;6196;48.398;11.736;2023-06-22T15:37:20;38.50;80.10
12268;DHT22;6196;48.398;11.736;2023-06-22T15:39:47;37.90;80.30
12268;DHT22;6196;48.398;11.736;2023-06-22T15:42:14;37.60;83.10
12268;DHT22;6196;48.398;11.736;2023-06-22T15:44:41;37.30;82.80